Unken, Austria
Current Conditions -  °F | °C
As of 6:50 PM on Thursday 27 Nov 2014 (Local Time) from LOWS Reporting Station
Broken Clouds Broken Clouds  
Wind Chill: 37°   Ceiling: 30000
Heat Index: 37°   Visibility: 6mi
Dew Point: 34°   Wind: 3mph
Humidity: 87%   Direction: 320°NW
Pressure: 29.8"   Gusts: NA
Location:  47.65°N, 12.73°E
Report Text: LOWS 271650Z 32003KT 9999 FEW007 BKN300 03/01 Q1009 BECMG FM1700 SCT007 BKN015
Loading
Personal Weather Stations






























Interactive Weather Map New forecast layout! Learn more

10-Day Weather Forecast

Advertisements
Track Severe Weather on mobile